createdAt,value
2019-02-04T00:01:56.192Z,119.60
2019-02-04T00:04:22.472Z,80.83
2019-02-04T00:06:48.742Z,68.83
2019-02-04T00:09:15.012Z,70.50
2019-02-04T00:11:41.190Z,62.73
2019-02-04T00:14:07.865Z,64.47
2019-02-04T00:16:40.556Z,62.23
2019-02-04T00:19:02.343Z,56.93
2019-02-04T00:21:28.611Z,46.37
2019-02-04T00:23:54.885Z,49.10
2019-02-04T00:26:21.168Z,41.87
2019-02-04T00:28:47.495Z,34.90
2019-02-04T00:31:13.821Z,32.47
2019-02-04T00:33:40.007Z,30.53
2019-02-04T00:36:06.284Z,29.30
2019-02-04T00:38:32.574Z,29.00
2019-02-04T00:40:58.838Z,28.20
2019-02-04T00:43:25.132Z,28.90
2019-02-04T00:45:51.437Z,29.53
2019-02-04T00:48:17.743Z,28.80
2019-02-04T00:50:44.229Z,26.40
2019-02-04T00:53:10.501Z,26.73
2019-02-04T00:55:36.780Z,26.57
2019-02-04T00:58:03.044Z,26.65
2019-02-04T01:00:30.046Z,26.17
2019-02-04T01:02:56.329Z,26.80
2019-02-04T01:05:22.631Z,28.67
2019-02-04T01:07:48.924Z,27.70
2019-02-04T01:10:18.805Z,29.93
2019-02-04T01:12:45.089Z,31.83
2019-02-04T01:15:11.144Z,25.80
2019-02-04T01:17:37.419Z,24.87
2019-02-04T01:20:06.907Z,25.53
2019-02-04T01:22:33.181Z,25.73
2019-02-04T01:24:59.446Z,26.60
2019-02-04T01:27:26.103Z,27.80
2019-02-04T01:29:52.272Z,26.07
2019-02-04T01:32:18.333Z,26.93
2019-02-04T01:34:44.558Z,31.27
2019-02-04T01:37:10.621Z,36.70
2019-02-04T01:39:36.596Z,38.53
2019-02-04T01:42:02.728Z,39.13
2019-02-04T01:44:28.884Z,59.80
2019-02-04T01:46:55.053Z,58.73
2019-02-04T01:49:21.105Z,58.37
2019-02-04T01:51:47.288Z,58.27
2019-02-04T01:54:13.451Z,67.83
2019-02-04T01:56:39.738Z,63.47
2019-02-04T01:59:05.781Z,64.17
2019-02-04T02:01:31.938Z,58.07
2019-02-04T02:03:57.996Z,64.43
2019-02-04T02:06:23.947Z,75.47
2019-02-04T02:08:50.005Z,74.03
2019-02-04T02:11:16.071Z,76.10
2019-02-04T02:13:42.131Z,73.60
2019-02-04T02:16:08.188Z,65.77
2019-02-04T02:18:34.449Z,67.43
2019-02-04T02:21:00.597Z,68.27
2019-02-04T02:23:26.953Z,71.73
2019-02-04T02:25:53.000Z,73.13
2019-02-04T02:28:19.060Z,84.20
2019-02-04T02:30:45.214Z,70.07
2019-02-04T02:33:11.262Z,72.27
2019-02-04T02:35:37.439Z,70.03
2019-02-04T02:38:03.616Z,74.10
2019-02-04T02:40:31.197Z,75.63
2019-02-04T02:42:57.770Z,66.17
2019-02-04T02:45:24.029Z,62.30
2019-02-04T02:47:50.084Z,60.50
2019-02-04T02:50:16.131Z,58.80
2019-02-04T02:52:42.189Z,61.13
2019-02-04T02:55:10.930Z,58.37
2019-02-04T02:57:36.972Z,66.10
2019-02-04T03:00:09.338Z,68.93
2019-02-04T03:02:35.490Z,55.23
2019-02-04T03:05:01.457Z,53.87
2019-02-04T03:07:27.518Z,60.83
2019-02-04T03:09:53.612Z,59.47
2019-02-04T03:12:19.660Z,57.90
2019-02-04T03:14:45.712Z,60.43
2019-02-04T03:17:11.761Z,66.97
2019-02-04T03:19:38.137Z,61.10
2019-02-04T03:22:04.186Z,59.50
2019-02-04T03:24:30.247Z,55.93
2019-02-04T03:26:56.409Z,49.43
2019-02-04T03:29:22.468Z,54.57
2019-02-04T03:31:48.607Z,50.90
2019-02-04T03:34:14.561Z,47.93
2019-02-04T03:36:40.624Z,53.10
2019-02-04T03:39:07.166Z,48.30
2019-02-04T03:41:33.336Z,57.33
2019-02-04T03:43:59.474Z,50.63
2019-02-04T03:46:25.753Z,45.80
2019-02-04T03:48:51.802Z,43.73
2019-02-04T03:51:17.861Z,40.27
2019-02-04T03:53:43.802Z,41.03
2019-02-04T03:56:09.875Z,42.00
2019-02-04T03:58:35.925Z,55.77
2019-02-04T04:01:01.987Z,46.73
2019-02-04T04:03:28.334Z,46.57
2019-02-04T04:05:54.497Z,47.80
2019-02-04T04:08:20.532Z,46.93
2019-02-04T04:10:46.598Z,38.53
2019-02-04T04:13:12.745Z,40.33
2019-02-04T04:15:39.188Z,50.90
2019-02-04T04:18:15.577Z,53.23
2019-02-04T04:20:33.318Z,46.77
2019-02-04T04:22:59.470Z,48.53
2019-02-04T04:25:27.339Z,55.20
2019-02-04T04:27:53.291Z,54.30
2019-02-04T04:30:39.364Z,52.13
2019-02-04T04:33:05.541Z,51.50
2019-02-04T04:35:31.621Z,51.33
2019-02-04T04:37:57.557Z,54.20
2019-02-04T04:40:23.621Z,53.50
2019-02-04T04:42:49.978Z,53.50
2019-02-04T04:45:23.947Z,48.60
2019-02-04T04:47:50.304Z,51.10
2019-02-04T04:50:16.362Z,62.43
2019-02-04T04:52:42.429Z,53.50
2019-02-04T04:55:15.051Z,48.43
2019-02-04T04:57:41.248Z,50.87
2019-02-04T05:00:10.928Z,78.13
2019-02-04T05:02:37.619Z,56.53
2019-02-04T05:05:06.696Z,50.73
2019-02-04T05:07:32.860Z,42.17
2019-02-04T05:09:59.012Z,41.50
2019-02-04T05:12:25.076Z,44.37
2019-02-04T05:14:51.327Z,44.77
2019-02-04T05:17:17.500Z,47.10
2019-02-04T05:19:43.684Z,48.80
2019-02-04T05:22:10.513Z,49.60
2019-02-04T05:24:36.669Z,48.80
2019-02-04T05:27:02.857Z,45.70
2019-02-04T05:29:29.128Z,42.57
2019-02-04T05:31:55.325Z,45.17
2019-02-04T05:34:21.609Z,52.07
2019-02-04T05:36:47.776Z,56.23
2019-02-04T05:39:13.916Z,45.07
2019-02-04T05:41:42.824Z,82.87
2019-02-04T05:44:08.337Z,44.13
2019-02-04T05:46:34.526Z,38.43
2019-02-04T05:49:00.715Z,29.07
2019-02-04T05:51:26.770Z,27.47
2019-02-04T05:53:52.960Z,23.33
2019-02-04T05:56:19.035Z,25.40
2019-02-04T05:58:45.728Z,23.57
2019-02-04T06:01:11.934Z,24.47
2019-02-04T06:03:38.087Z,32.43
2019-02-04T06:06:04.254Z,39.10
2019-02-04T06:08:30.548Z,35.63
2019-02-04T06:10:56.711Z,45.53
2019-02-04T06:13:22.970Z,41.30
2019-02-04T06:15:49.471Z,40.57
2019-02-04T06:18:16.124Z,36.33
2019-02-04T06:20:42.505Z,39.40
2019-02-04T06:23:08.823Z,35.87
2019-02-04T06:25:34.922Z,41.43
2019-02-04T06:28:00.992Z,45.47
2019-02-04T06:30:27.169Z,39.20
2019-02-04T06:32:53.236Z,37.17
2019-02-04T06:35:19.319Z,40.90
2019-02-04T06:37:46.866Z,43.47
2019-02-04T06:40:14.952Z,46.00
2019-02-04T06:42:40.899Z,47.80
2019-02-04T06:45:10.279Z,51.00
2019-02-04T06:47:36.437Z,55.43
2019-02-04T06:50:05.314Z,56.63
2019-02-04T06:52:31.479Z,67.73
2019-02-04T06:54:58.043Z,77.93
2019-02-04T06:57:24.204Z,60.23
2019-02-04T06:59:50.263Z,62.75
2019-02-04T07:02:16.418Z,80.67
2019-02-04T07:04:42.570Z,102.97
2019-02-04T07:07:08.743Z,126.47
2019-02-04T07:09:34.810Z,45.48
2019-02-04T07:12:00.874Z,30.92
2019-02-04T07:14:27.419Z,36.13
2019-02-04T07:16:53.691Z,44.83
2019-02-04T07:19:24.325Z,52.90
2019-02-04T07:21:47.837Z,61.55
2019-02-04T07:24:13.886Z,69.37
2019-02-04T07:26:40.052Z,68.72
2019-02-04T07:29:06.126Z,63.17
2019-02-04T07:31:32.303Z,65.28
2019-02-04T07:33:58.858Z,61.73
2019-02-04T07:36:25.223Z,49.88
2019-02-04T07:38:51.297Z,42.85
2019-02-04T07:41:17.463Z,52.25
2019-02-04T07:43:43.608Z,49.38
2019-02-04T07:46:09.680Z,52.35
2019-02-04T07:48:35.733Z,43.02
2019-02-04T07:51:01.996Z,48.58
2019-02-04T07:53:28.640Z,48.65
2019-02-04T07:55:54.816Z,46.98
2019-02-04T07:58:20.879Z,51.20
2019-02-04T08:00:46.853Z,48.55
2019-02-04T08:03:15.025Z,48.05
2019-02-04T08:05:41.002Z,51.25
2019-02-04T08:08:07.067Z,47.50
2019-02-04T08:10:33.123Z,41.63
2019-02-04T08:13:01.903Z,36.98
2019-02-04T08:15:30.759Z,36.53
2019-02-04T08:17:56.920Z,35.45
2019-02-04T08:20:23.282Z,34.43
2019-02-04T08:22:49.341Z,34.20
2019-02-04T08:25:16.119Z,29.10
2019-02-04T08:27:42.280Z,30.32
2019-02-04T08:30:21.418Z,31.00
2019-02-04T08:32:47.473Z,30.35
2019-02-04T08:35:13.656Z,31.27
2019-02-04T08:37:39.918Z,31.97
2019-02-04T08:40:09.694Z,30.48
2019-02-04T08:42:35.751Z,31.50
2019-02-04T08:45:01.936Z,32.38
2019-02-04T08:47:28.604Z,32.10
2019-02-04T08:49:58.553Z,32.25
2019-02-04T08:52:22.644Z,32.98
2019-02-04T08:54:48.904Z,32.53
2019-02-04T08:57:14.998Z,31.87
2019-02-04T08:59:41.068Z,33.92
2019-02-04T09:02:07.338Z,35.43
2019-02-04T09:04:33.607Z,35.48
2019-02-04T09:06:59.665Z,36.58
2019-02-04T09:09:26.116Z,37.17
2019-02-04T09:11:52.178Z,37.23
2019-02-04T09:14:18.335Z,39.78
2019-02-04T09:16:44.616Z,36.10
2019-02-04T09:19:10.785Z,38.28
2019-02-04T09:21:36.949Z,42.50
2019-02-04T09:24:04.081Z,40.88
2019-02-04T09:26:30.246Z,44.85
2019-02-04T09:28:56.888Z,43.48
2019-02-04T09:31:23.281Z,43.15
2019-02-04T09:33:49.557Z,53.70
2019-02-04T09:36:15.804Z,62.60
2019-02-04T09:38:42.131Z,63.83
2019-02-04T09:41:08.186Z,61.63
2019-02-04T09:43:34.262Z,66.28
2019-02-04T09:46:00.468Z,68.10
2019-02-04T09:48:26.638Z,54.20
2019-02-04T09:50:52.897Z,55.05
2019-02-04T09:53:19.101Z,56.73
2019-02-04T09:55:45.147Z,62.10
2019-02-04T09:58:11.423Z,58.80
2019-02-04T10:00:37.700Z,72.45
2019-02-04T10:03:05.182Z,54.77
2019-02-04T10:05:31.346Z,45.17
2019-02-04T10:07:58.017Z,49.05
2019-02-04T10:10:26.427Z,49.55
2019-02-04T10:12:52.790Z,46.50
2019-02-04T10:15:26.913Z,45.33
2019-02-04T10:17:52.999Z,42.20
2019-02-04T10:20:19.116Z,45.08
2019-02-04T10:22:45.396Z,46.37
2019-02-04T10:25:21.144Z,45.38
2019-02-04T10:27:47.389Z,43.75
2019-02-04T10:30:22.111Z,45.40
2019-02-04T10:32:48.180Z,42.33
2019-02-04T10:35:17.217Z,42.75
2019-02-04T10:37:43.236Z,36.50
2019-02-04T10:40:15.400Z,32.35
2019-02-04T10:42:41.604Z,31.62
2019-02-04T10:45:10.651Z,33.70
2019-02-04T10:47:36.716Z,31.62
2019-02-04T10:50:09.651Z,31.57
2019-02-04T10:52:35.796Z,30.85
2019-02-04T10:55:03.169Z,32.23
2019-02-04T10:57:40.028Z,28.77
2019-02-04T10:59:57.445Z,29.55
2019-02-04T11:02:23.649Z,28.00
2019-02-04T11:04:49.803Z,29.05
2019-02-04T11:07:16.069Z,29.10
2019-02-04T11:09:42.310Z,27.22
2019-02-04T11:12:08.282Z,26.27
2019-02-04T11:14:34.458Z,25.12
2019-02-04T11:17:00.746Z,24.30
2019-02-04T11:19:26.794Z,21.17
2019-02-04T11:21:53.090Z,18.73
2019-02-04T11:24:19.320Z,19.17
2019-02-04T11:26:45.410Z,22.15
2019-02-04T11:29:11.679Z,20.68
2019-02-04T11:31:38.361Z,21.05
2019-02-04T11:34:04.625Z,20.77
2019-02-04T11:36:30.851Z,24.87
2019-02-04T11:38:57.131Z,28.35
2019-02-04T11:41:23.536Z,26.80
2019-02-04T11:43:50.284Z,24.82
2019-02-04T11:46:16.549Z,26.10
2019-02-04T11:48:42.787Z,27.87
2019-02-04T11:51:10.167Z,27.65
2019-02-04T11:53:36.512Z,27.48
2019-02-04T11:56:02.586Z,23.27
2019-02-04T11:58:28.851Z,19.40
2019-02-04T12:00:54.916Z,17.48
2019-02-04T12:03:20.976Z,16.80
2019-02-04T12:05:47.145Z,16.67
2019-02-04T12:08:13.296Z,14.78
2019-02-04T12:10:46.192Z,18.42
2019-02-04T12:13:12.444Z,18.65
2019-02-04T12:15:38.713Z,17.57
2019-02-04T12:18:04.965Z,19.30
2019-02-04T12:20:31.237Z,17.27
2019-02-04T12:22:57.393Z,18.07
2019-02-04T12:25:27.414Z,18.82
2019-02-04T12:27:54.788Z,19.37
2019-02-04T12:30:23.991Z,19.37
2019-02-04T12:32:50.272Z,17.90
2019-02-04T12:35:16.329Z,17.30
2019-02-04T12:37:42.611Z,16.07
2019-02-04T12:40:13.893Z,17.73
2019-02-04T12:42:40.170Z,15.60
2019-02-04T12:45:10.351Z,15.18
2019-02-04T12:47:36.623Z,15.55
2019-02-04T12:50:05.803Z,15.85
2019-02-04T12:52:32.080Z,14.10
2019-02-04T12:54:58.232Z,13.10
2019-02-04T12:57:24.500Z,11.38
2019-02-04T12:59:50.659Z,13.85
2019-02-04T13:02:17.229Z,16.10
2019-02-04T13:04:43.485Z,18.32
2019-02-04T13:07:09.559Z,12.25
2019-02-04T13:09:35.826Z,13.85
2019-02-04T13:12:02.079Z,16.75
2019-02-04T13:14:28.252Z,13.83
2019-02-04T13:16:54.322Z,13.93
2019-02-04T13:19:20.603Z,12.80
2019-02-04T13:21:47.187Z,13.60
2019-02-04T13:24:13.248Z,13.35
2019-02-04T13:26:39.520Z,13.13
2019-02-04T13:29:05.720Z,14.03
2019-02-04T13:31:31.904Z,12.90
2019-02-04T13:33:58.196Z,14.70
2019-02-04T13:36:24.475Z,13.70
2019-02-04T13:38:50.631Z,16.50
2019-02-04T13:41:17.268Z,15.68
2019-02-04T13:43:43.581Z,14.23
2019-02-04T13:46:09.830Z,15.35
2019-02-04T13:48:36.155Z,16.25
2019-02-04T13:51:02.426Z,16.37
2019-02-04T13:53:28.688Z,16.73
2019-02-04T13:55:54.751Z,15.63
2019-02-04T13:58:21.761Z,17.77
2019-02-04T14:00:48.250Z,19.20
2019-02-04T14:03:17.450Z,18.75
2019-02-04T14:05:42.688Z,20.17
2019-02-04T14:08:08.862Z,19.35
2019-02-04T14:10:37.581Z,19.12
2019-02-04T14:13:03.972Z,50.78
2019-02-04T14:15:30.239Z,55.10
2019-02-04T14:17:56.699Z,34.50
2019-02-04T14:20:24.390Z,26.15
2019-02-04T14:22:53.320Z,31.12
2019-02-04T14:25:18.924Z,25.30
2019-02-04T14:27:45.121Z,24.75
2019-02-04T14:30:26.964Z,21.70
2019-02-04T14:32:53.256Z,23.00
2019-02-04T14:35:19.417Z,21.23
2019-02-04T14:37:45.517Z,20.32
2019-02-04T14:40:18.748Z,20.70
2019-02-04T14:42:41.523Z,19.17
2019-02-04T14:45:20.947Z,20.90
2019-02-04T14:48:03.148Z,22.27
2019-02-04T14:50:37.653Z,27.80
2019-02-04T14:53:31.337Z,28.40
2019-02-04T14:56:10.349Z,29.00
2019-02-04T14:58:58.174Z,30.30
2019-02-04T15:02:18.637Z,32.93
2019-02-04T15:05:25.050Z,39.70
2019-02-04T15:08:18.761Z,39.95
2019-02-04T15:10:51.844Z,40.35
2019-02-04T15:13:51.845Z,40.30
2019-02-04T15:16:27.780Z,42.85
2019-02-04T15:19:20.479Z,42.35
2019-02-04T15:22:33.113Z,42.33
2019-02-04T15:25:27.465Z,46.23
2019-02-04T15:28:15.370Z,46.35
2019-02-04T15:31:18.607Z,52.95
2019-02-04T15:33:54.277Z,56.70
2019-02-04T15:36:47.985Z,54.60
2019-02-04T15:42:31.631Z,54.25
2019-02-04T15:44:58.607Z,52.83
2019-02-04T15:47:28.552Z,53.80
2019-02-04T15:50:15.239Z,62.83
2019-02-04T15:52:45.550Z,65.05
2019-02-04T15:55:13.038Z,64.35
2019-02-04T15:57:39.314Z,66.20
2019-02-04T16:00:09.081Z,103.22
2019-02-04T16:02:35.370Z,103.40
2019-02-04T16:05:01.530Z,130.63
2019-02-04T16:07:27.849Z,159.20
2019-02-04T16:09:54.624Z,171.65
2019-02-04T16:12:20.956Z,127.50
2019-02-04T16:14:47.259Z,140.82
2019-02-04T16:17:13.534Z,147.55
2019-02-04T16:19:39.911Z,176.35
2019-02-04T16:22:06.185Z,126.47
2019-02-04T16:24:32.485Z,150.78
2019-02-04T16:26:58.806Z,239.63
2019-02-04T16:29:25.580Z,211.77
2019-02-04T16:31:51.863Z,242.40
2019-02-04T16:34:18.086Z,222.00
2019-02-04T16:36:44.370Z,193.70
2019-02-04T16:39:10.699Z,170.95
2019-02-04T16:41:36.979Z,178.10
2019-02-04T16:44:03.477Z,187.10
2019-02-04T16:46:29.759Z,216.08
2019-02-04T16:48:56.431Z,208.20
2019-02-04T16:51:22.734Z,208.72
2019-02-04T16:53:48.944Z,207.15
2019-02-04T16:56:15.135Z,208.38
2019-02-04T16:58:41.400Z,175.53
2019-02-04T17:01:07.683Z,172.35
2019-02-04T17:03:33.852Z,163.65
2019-02-04T17:06:00.017Z,133.37
2019-02-04T17:08:26.580Z,129.87
2019-02-04T17:10:52.962Z,137.65
2019-02-04T17:13:19.233Z,109.07
2019-02-04T17:15:45.516Z,80.03
2019-02-04T17:18:13.597Z,49.08
2019-02-04T17:20:39.792Z,54.20
2019-02-04T17:23:05.970Z,52.67
2019-02-04T17:25:32.253Z,55.25
2019-02-04T17:28:00.781Z,57.88
2019-02-04T17:30:27.071Z,57.43
2019-02-04T17:32:53.376Z,53.10
2019-02-04T17:35:19.590Z,58.95
2019-02-04T17:37:45.873Z,73.83
2019-02-04T17:40:17.645Z,62.40
2019-02-04T17:42:43.954Z,83.58
2019-02-04T17:45:12.531Z,84.97
2019-02-04T17:47:38.825Z,117.65
2019-02-04T17:50:28.453Z,135.40
2019-02-04T17:52:54.889Z,140.97
2019-02-04T17:55:48.890Z,146.35
2019-02-04T17:58:15.171Z,144.32
2019-02-04T18:00:45.748Z,140.75
2019-02-04T18:03:11.956Z,135.82
2019-02-04T18:05:38.169Z,131.90
2019-02-04T18:08:06.560Z,121.30
2019-02-04T18:10:32.843Z,123.33
2019-02-04T18:12:59.116Z,151.15
2019-02-04T18:15:25.383Z,203.18
2019-02-04T18:17:51.678Z,231.15
2019-02-04T18:20:17.879Z,223.85
2019-02-04T18:22:44.158Z,242.80
2019-02-04T18:25:13.144Z,259.85
2019-02-04T18:27:39.430Z,240.70
2019-02-04T18:30:09.013Z,238.75
2019-02-04T18:32:35.296Z,236.32
2019-02-04T18:35:01.401Z,199.27
2019-02-04T18:37:28.084Z,126.10
2019-02-04T18:39:54.364Z,102.30
2019-02-04T18:42:20.637Z,104.20
2019-02-04T18:44:47.380Z,86.63
2019-02-04T18:47:13.566Z,74.27
2019-02-04T18:49:39.862Z,91.95
2019-02-04T18:52:06.155Z,173.62
2019-02-04T18:54:32.730Z,148.17
2019-02-04T18:56:58.924Z,77.92
2019-02-04T18:59:25.196Z,104.20
2019-02-04T19:01:51.570Z,117.22
2019-02-04T19:04:17.848Z,104.30
2019-02-04T19:06:47.753Z,97.17
2019-02-04T19:09:12.650Z,126.78
2019-02-04T19:11:38.917Z,135.03
2019-02-04T19:14:05.212Z,108.47
2019-02-04T19:16:31.478Z,59.80
2019-02-04T19:18:57.735Z,98.92
2019-02-04T19:21:24.321Z,57.35
2019-02-04T19:23:50.610Z,53.17
2019-02-04T19:26:16.783Z,43.28
2019-02-04T19:28:43.071Z,43.87
2019-02-04T19:31:09.847Z,49.25
2019-02-04T19:33:36.431Z,63.30
2019-02-04T19:36:02.834Z,66.40
2019-02-04T19:38:29.286Z,64.30
2019-02-04T19:40:55.956Z,59.73
2019-02-04T19:43:22.021Z,50.08
2019-02-04T19:45:48.323Z,60.03
2019-02-04T19:48:14.603Z,63.35
2019-02-04T19:50:40.759Z,119.90
2019-02-04T19:53:07.137Z,82.37
2019-02-04T19:55:33.413Z,75.55
2019-02-04T19:57:59.678Z,79.15
2019-02-04T20:00:26.400Z,70.67
2019-02-04T20:02:52.788Z,64.87
2019-02-04T20:05:24.652Z,86.57
2019-02-04T20:07:50.919Z,88.37
2019-02-04T20:10:18.512Z,79.05
2019-02-04T20:12:44.791Z,84.10
2019-02-04T20:15:19.767Z,80.75
2019-02-04T20:17:45.955Z,86.40
2019-02-04T20:20:12.247Z,90.45
2019-02-04T20:22:38.625Z,89.75
2019-02-04T20:25:28.286Z,87.08
2019-02-04T20:27:54.592Z,89.17
2019-02-04T20:30:26.738Z,89.72
2019-02-04T20:32:53.005Z,85.45
2019-02-04T20:35:19.308Z,91.30
2019-02-04T20:37:45.484Z,88.80
2019-02-04T20:40:20.171Z,85.72
2019-02-04T20:42:46.350Z,84.13
2019-02-04T20:45:13.615Z,78.70
2019-02-04T20:47:40.518Z,81.85
2019-02-04T20:50:10.427Z,86.85
2019-02-04T20:52:36.708Z,108.92
2019-02-04T20:55:04.626Z,116.20
2019-02-04T20:57:30.907Z,115.85
2019-02-04T20:59:57.088Z,104.05
2019-02-04T21:02:23.372Z,94.47
2019-02-04T21:04:49.942Z,95.90
2019-02-04T21:07:16.019Z,87.75
2019-02-04T21:09:42.297Z,93.22
2019-02-04T21:12:08.493Z,83.72
2019-02-04T21:14:34.772Z,82.05
2019-02-04T21:17:01.023Z,79.37
2019-02-04T21:19:27.112Z,87.10
2019-02-04T21:21:53.282Z,83.33
2019-02-04T21:24:19.846Z,85.25
2019-02-04T21:26:46.301Z,78.35
2019-02-04T21:29:12.568Z,77.00
2019-02-04T21:31:38.718Z,78.20
2019-02-04T21:34:05.669Z,78.20
2019-02-04T21:36:31.915Z,93.20
2019-02-04T21:38:58.092Z,80.92
2019-02-04T21:41:24.253Z,73.22
2019-02-04T21:43:51.025Z,75.25
2019-02-04T21:46:17.189Z,58.98
2019-02-04T21:48:43.354Z,65.87
2019-02-04T21:51:09.423Z,54.93
2019-02-04T21:53:35.588Z,52.43
2019-02-04T21:56:01.866Z,49.63
2019-02-04T21:58:28.125Z,46.80
2019-02-04T22:00:54.382Z,46.10
2019-02-04T22:03:20.427Z,46.33
2019-02-04T22:05:46.586Z,46.05
2019-02-04T22:08:12.848Z,44.13
2019-02-04T22:10:39.323Z,41.60
2019-02-04T22:13:05.368Z,43.02
2019-02-04T22:15:31.837Z,44.08
2019-02-04T22:17:57.884Z,46.20
2019-02-04T22:20:24.058Z,50.05
2019-02-04T22:22:50.095Z,52.30
2019-02-04T22:25:21.141Z,49.60
2019-02-04T22:27:47.302Z,48.95
2019-02-04T22:30:18.309Z,47.73
2019-02-04T22:32:44.471Z,47.27
2019-02-04T22:35:10.614Z,53.85
2019-02-04T22:37:36.779Z,64.42
2019-02-04T22:40:06.670Z,62.23
2019-02-04T22:42:33.157Z,47.80
2019-02-04T22:44:59.319Z,45.38
2019-02-04T22:47:25.380Z,46.42
2019-02-04T22:49:51.545Z,41.70
2019-02-04T22:52:17.612Z,42.85
2019-02-04T22:54:43.660Z,39.95
2019-02-04T22:57:09.817Z,42.00
2019-02-04T22:59:35.868Z,42.60
2019-02-04T23:02:02.127Z,45.00
2019-02-04T23:04:28.188Z,44.10
2019-02-04T23:06:54.236Z,42.67
2019-02-04T23:09:20.400Z,41.28
2019-02-04T23:11:46.550Z,41.15
2019-02-04T23:14:12.591Z,40.00
2019-02-04T23:16:38.753Z,39.55
2019-02-04T23:19:04.810Z,37.93
2019-02-04T23:21:30.978Z,38.45
2019-02-04T23:23:57.134Z,41.25
2019-02-04T23:26:23.208Z,42.27
2019-02-04T23:28:49.297Z,40.67
2019-02-04T23:31:15.344Z,40.00
2019-02-04T23:33:41.725Z,43.52
2019-02-04T23:36:07.780Z,47.25
2019-02-04T23:38:33.975Z,46.75
2019-02-04T23:41:00.137Z,44.08
2019-02-04T23:43:26.397Z,43.40
2019-02-04T23:45:52.453Z,41.48
2019-02-04T23:48:18.752Z,40.12
2019-02-04T23:50:44.912Z,42.55
2019-02-04T23:53:11.079Z,42.13
2019-02-04T23:55:37.138Z,43.35
2019-02-04T23:58:03.301Z,46.42
